sensor_id;sensor_type;location;lat;lon;timestamp;temperature;humidity
25170;DHT22;13129;48.012;10.352;2023-07-29T03:31:17;14.60;99.90
25170;DHT22;13129;48.012;10.352;2023-07-29T03:33:43;14.60;99.90
25170;DHT22;13129;48.012;10.352;2023-07-29T03:36:08;14.60;99.90
25170;DHT22;13129;48.012;10.352;2023-07-29T03:38:34;14.60;99.90
25170;DHT22;13129;48.012;10.352;2023-07-29T03:41:01;14.60;99.90
25170;DHT22;13129;48.012;10.352;2023-07-29T03:43:28;14.60;99.90
25170;DHT22;13129;48.012;10.352;2023-07-29T07:41:48;22.90;99.90
25170;DHT22;13129;48.012;10.352;2023-07-29T07:44:14;23.70;99.90
25170;DHT22;13129;48.012;10.352;2023-07-29T07:46:43;23.60;99.90
25170;DHT22;13129;48.012;10.352;2023-07-29T07:49:08;23.30;99.90
25170;DHT22;13129;48.012;10.352;2023-07-29T07:51:34;23.20;99.90
25170;DHT22;13129;48.012;10.352;2023-07-29T07:54:00;23.30;99.90
25170;DHT22;13129;48.012;10.352;2023-07-29T07:56:26;23.60;99.90
25170;DHT22;13129;48.012;10.352;2023-07-29T07:58:51;23.60;99.90
25170;DHT22;13129;48.012;10.352;2023-07-29T08:01:17;23.40;99.90
25170;DHT22;13129;48.012;10.352;2023-07-29T08:03:42;23.20;99.90
25170;DHT22;13129;48.012;10.352;2023-07-29T08:06:08;23.20;99.90
25170;DHT22;13129;48.012;10.352;2023-07-29T08:08:33;23.40;99.90
25170;DHT22;13129;48.012;10.352;2023-07-29T08:10:59;24.20;99.90
25170;DHT22;13129;48.012;10.352;2023-07-29T08:13:24;25.40;99.90
25170;DHT22;13129;48.012;10.352;2023-07-29T08:15:51;26.70;99.90
25170;DHT22;13129;48.012;10.352;2023-07-29T08:18:24;28.30;99.90
25170;DHT22;13129;48.012;10.352;2023-07-29T08:21:22;29.90;99.90
25170;DHT22;13129;48.012;10.352;2023-07-29T08:23:48;31.50;99.90
25170;DHT22;13129;48.012;10.352;2023-07-29T08:26:14;32.70;95.80
25170;DHT22;13129;48.012;10.352;2023-07-29T08:28:41;33.20;92.60
25170;DHT22;13129;48.012;10.352;2023-07-29T08:31:07;33.90;90.20
25170;DHT22;13129;48.012;10.352;2023-07-29T08:33:33;34.40;85.60
25170;DHT22;13129;48.012;10.352;2023-07-29T08:35:59;35.00;81.20
25170;DHT22;13129;48.012;10.352;2023-07-29T08:38:25;35.70;77.00
25170;DHT22;13129;48.012;10.352;2023-07-29T08:41:03;36.20;74.50
25170;DHT22;13129;48.012;10.352;2023-07-29T08:43:32;36.50;71.90
25170;DHT22;13129;48.012;10.352;2023-07-29T08:45:58;36.70;71.20
25170;DHT22;13129;48.012;10.352;2023-07-29T08:48:36;37.10;68.90
25170;DHT22;13129;48.012;10.352;2023-07-29T08:51:04;36.80;66.60
25170;DHT22;13129;48.012;10.352;2023-07-29T08:53:31;35.50;67.70
25170;DHT22;13129;48.012;10.352;2023-07-29T08:55:57;33.70;70.30
25170;DHT22;13129;48.012;10.352;2023-07-29T08:58:23;33.40;74.40
25170;DHT22;13129;48.012;10.352;2023-07-29T09:00:50;33.50;74.40
25170;DHT22;13129;48.012;10.352;2023-07-29T09:03:16;34.00;73.70
25170;DHT22;13129;48.012;10.352;2023-07-29T09:05:41;35.10;71.50
25170;DHT22;13129;48.012;10.352;2023-07-29T09:08:07;35.80;71.00
25170;DHT22;13129;48.012;10.352;2023-07-29T09:10:37;36.70;68.80
25170;DHT22;13129;48.012;10.352;2023-07-29T09:13:03;37.20;65.20
25170;DHT22;13129;48.012;10.352;2023-07-29T09:15:30;37.70;65.50
25170;DHT22;13129;48.012;10.352;2023-07-29T09:17:57;38.40;63.70
25170;DHT22;13129;48.012;10.352;2023-07-29T09:20:27;38.70;62.80
25170;DHT22;13129;48.012;10.352;2023-07-29T09:22:58;38.40;60.90
25170;DHT22;13129;48.012;10.352;2023-07-29T09:25:26;38.00;61.30
25170;DHT22;13129;48.012;10.352;2023-07-29T09:27:58;38.00;62.30
25170;DHT22;13129;48.012;10.352;2023-07-29T09:30:24;38.10;62.10
25170;DHT22;13129;48.012;10.352;2023-07-29T09:32:58;38.00;61.90
25170;DHT22;13129;48.012;10.352;2023-07-29T09:35:26;37.50;62.60
25170;DHT22;13129;48.012;10.352;2023-07-29T09:37:57;36.90;63.30
25170;DHT22;13129;48.012;10.352;2023-07-29T09:40:24;36.70;63.20
25170;DHT22;13129;48.012;10.352;2023-07-29T09:42:51;36.50;65.40
25170;DHT22;13129;48.012;10.352;2023-07-29T09:58:12;36.50;61.80
25170;DHT22;13129;48.012;10.352;2023-07-29T10:00:39;36.90;61.60
25170;DHT22;13129;48.012;10.352;2023-07-29T10:03:09;37.50;60.10
25170;DHT22;13129;48.012;10.352;2023-07-29T10:05:38;37.30;59.80
25170;DHT22;13129;48.012;10.352;2023-07-29T10:08:04;37.00;60.30
25170;DHT22;13129;48.012;10.352;2023-07-29T10:10:33;37.40;59.50
25170;DHT22;13129;48.012;10.352;2023-07-29T10:12:59;37.70;59.10
25170;DHT22;13129;48.012;10.352;2023-07-29T10:15:27;37.40;59.30
25170;DHT22;13129;48.012;10.352;2023-07-29T10:17:54;36.90;58.80
25170;DHT22;13129;48.012;10.352;2023-07-29T10:20:20;35.70;59.50
25170;DHT22;13129;48.012;10.352;2023-07-29T10:22:47;35.60;61.10
25170;DHT22;13129;48.012;10.352;2023-07-29T10:25:17;35.50;61.40
25170;DHT22;13129;48.012;10.352;2023-07-29T10:27:49;35.30;60.50
25170;DHT22;13129;48.012;10.352;2023-07-29T10:30:15;35.10;60.50
25170;DHT22;13129;48.012;10.352;2023-07-29T10:32:44;34.90;62.00
25170;DHT22;13129;48.012;10.352;2023-07-29T10:35:13;34.60;62.60
25170;DHT22;13129;48.012;10.352;2023-07-29T10:37:39;34.20;63.40
25170;DHT22;13129;48.012;10.352;2023-07-29T10:40:07;33.50;65.00
25170;DHT22;13129;48.012;10.352;2023-07-29T10:42:33;32.80;65.40
25170;DHT22;13129;48.012;10.352;2023-07-29T10:44:59;31.50;67.10
25170;DHT22;13129;48.012;10.352;2023-07-29T10:47:26;31.30;69.90
25170;DHT22;13129;48.012;10.352;2023-07-29T10:49:56;31.50;70.20
25170;DHT22;13129;48.012;10.352;2023-07-29T10:52:40;31.50;70.10
25170;DHT22;13129;48.012;10.352;2023-07-29T10:55:30;31.20;69.30
25170;DHT22;13129;48.012;10.352;2023-07-29T11:04:22;31.10;71.40
25170;DHT22;13129;48.012;10.352;2023-07-29T11:12:33;30.50;74.40
25170;DHT22;13129;48.012;10.352;2023-07-29T11:15:28;30.30;72.50
25170;DHT22;13129;48.012;10.352;2023-07-29T11:17:58;29.50;72.00
25170;DHT22;13129;48.012;10.352;2023-07-29T11:20:33;29.30;73.30
25170;DHT22;13129;48.012;10.352;2023-07-29T11:23:01;29.50;75.80
25170;DHT22;13129;48.012;10.352;2023-07-29T11:25:29;29.90;76.70
25170;DHT22;13129;48.012;10.352;2023-07-29T11:28:00;30.10;74.40
25170;DHT22;13129;48.012;10.352;2023-07-29T11:30:27;30.10;74.40
25170;DHT22;13129;48.012;10.352;2023-07-29T11:32:54;30.50;75.10
25170;DHT22;13129;48.012;10.352;2023-07-29T11:35:22;30.20;76.10
25170;DHT22;13129;48.012;10.352;2023-07-29T11:37:49;30.10;75.90
25170;DHT22;13129;48.012;10.352;2023-07-29T11:40:38;30.00;74.50
25170;DHT22;13129;48.012;10.352;2023-07-29T11:43:05;29.70;75.00
25170;DHT22;13129;48.012;10.352;2023-07-29T11:45:53;29.90;75.30
25170;DHT22;13129;48.012;10.352;2023-07-29T11:48:27;30.00;75.80
25170;DHT22;13129;48.012;10.352;2023-07-29T11:50:53;29.90;76.00
25170;DHT22;13129;48.012;10.352;2023-07-29T11:53:20;30.00;76.20
25170;DHT22;13129;48.012;10.352;2023-07-29T11:55:58;29.90;75.10
25170;DHT22;13129;48.012;10.352;2023-07-29T11:58:27;29.70;75.30
25170;DHT22;13129;48.012;10.352;2023-07-29T12:01:05;29.60;75.20
25170;DHT22;13129;48.012;10.352;2023-07-29T12:03:47;29.50;77.30
25170;DHT22;13129;48.012;10.352;2023-07-29T12:06:13;29.20;77.10
25170;DHT22;13129;48.012;10.352;2023-07-29T12:08:47;28.90;79.20
25170;DHT22;13129;48.012;10.352;2023-07-29T12:11:17;29.00;80.20
25170;DHT22;13129;48.012;10.352;2023-07-29T12:13:44;29.00;77.70
25170;DHT22;13129;48.012;10.352;2023-07-29T12:16:16;28.30;76.20
25170;DHT22;13129;48.012;10.352;2023-07-29T12:18:43;27.90;77.40
25170;DHT22;13129;48.012;10.352;2023-07-29T12:21:09;28.00;79.80
25170;DHT22;13129;48.012;10.352;2023-07-29T12:23:50;28.00;80.80
25170;DHT22;13129;48.012;10.352;2023-07-29T21:59:18;17.40;99.90
25170;DHT22;13129;48.012;10.352;2023-07-29T22:01:45;17.40;99.90
25170;DHT22;13129;48.012;10.352;2023-07-29T22:04:11;17.50;99.90
25170;DHT22;13129;48.012;10.352;2023-07-29T22:06:36;17.50;99.90
25170;DHT22;13129;48.012;10.352;2023-07-29T22:09:03;17.50;99.90
25170;DHT22;13129;48.012;10.352;2023-07-29T22:11:28;17.50;99.90
25170;DHT22;13129;48.012;10.352;2023-07-29T22:13:55;17.50;99.90
25170;DHT22;13129;48.012;10.352;2023-07-29T22:16:21;17.50;99.90
25170;DHT22;13129;48.012;10.352;2023-07-29T22:18:46;17.50;99.90
25170;DHT22;13129;48.012;10.352;2023-07-29T22:21:12;17.50;99.90
25170;DHT22;13129;48.012;10.352;2023-07-29T22:23:37;17.50;99.90
25170;DHT22;13129;48.012;10.352;2023-07-29T22:26:03;17.50;99.90
25170;DHT22;13129;48.012;10.352;2023-07-29T22:28:31;17.50;99.90
25170;DHT22;13129;48.012;10.352;2023-07-29T22:30:59;17.50;99.90
25170;DHT22;13129;48.012;10.352;2023-07-29T22:33:30;17.40;99.90
25170;DHT22;13129;48.012;10.352;2023-07-29T22:35:59;17.40;99.90
25170;DHT22;13129;48.012;10.352;2023-07-29T22:38:25;17.40;99.90
25170;DHT22;13129;48.012;10.352;2023-07-29T22:40:54;17.40;99.90
25170;DHT22;13129;48.012;10.352;2023-07-29T22:43:21;17.30;99.90
25170;DHT22;13129;48.012;10.352;2023-07-29T22:45:55;17.30;99.90
25170;DHT22;13129;48.012;10.352;2023-07-29T22:48:21;17.20;99.90
25170;DHT22;13129;48.012;10.352;2023-07-29T22:50:47;17.20;99.90
25170;DHT22;13129;48.012;10.352;2023-07-29T22:53:14;17.10;99.90
25170;DHT22;13129;48.012;10.352;2023-07-29T22:55:42;17.00;99.90
25170;DHT22;13129;48.012;10.352;2023-07-29T22:58:08;17.00;99.90
